Tropical Cyclones
[Index]
Main Index Home Page Stock Weather Photos Extreme Storms Discussion Storm News and Storm Chasing Reports Tropical Cyclones / Hurricanes / Typhoons Weather Data and Links Wild Fires / Bushfires Weather Observation Techniques Weather Picture Catalogue Tornado Pictures and Reports Stock Video Footage and DVDs for sale
Season 2012-2013 Tropical Cyclone FREDA Track Map
Season 2012-2013 Summaries (Operational Data): [AU] [SIO] [SPAC] [SH]
<<- Previous TC | 2012-2013 Season | Next TC ->>

click for intensity scale information  Lat/long Grid: Show Hide

 Date Labels: Show Hide

Operational Tropical Cyclone Data : JTWC Advisories

Name: FREDA
Number: 1305

25 Dec 2012 06:00 UTC to 07 Jan 2013 06:00 UTC

    date/time    lat    long     hPa   cat  kts
2012-12-25 06    5.4   169.7    1010         15          
2012-12-25 12    6.3   169.4    1010         15          
2012-12-25 18    7.4   169.0    1010         15          
2012-12-26 00    8.3   168.7                 15          
2012-12-26 06    7.5   164.7    1010         15          
2012-12-26 12    7.8   164.5    1010         15          
2012-12-26 18    8.1   164.3    1010         15          
2012-12-27 00    8.4   164.1    1007         20          
2012-12-27 06    8.8   163.8    1004         25          
2012-12-27 12    9.3   163.4    1004         25          
2012-12-27 18    9.7   162.7    1000         30          
2012-12-28 00   10.0   161.9    1000         30          
2012-12-28 06   10.3   161.2     996    1    35          
2012-12-28 12   11.0   160.4     993    1    40          
2012-12-28 18   11.8   160.1     989    1    45          
2012-12-29 00   12.3   160.0     982    2    55          
2012-12-29 06   12.6   160.0     978    2    60          
2012-12-29 12   13.0   160.3     963    3    80          
2012-12-29 18   13.5   160.4     956    4    90          
2012-12-30 00   14.1   160.7     948    4   100          
2012-12-30 06   14.6   161.0     948    4   100          
2012-12-30 12   15.3   161.1     944    4   105          
2012-12-30 18   15.8   161.0     941    5   110          
2012-12-31 00   16.4   161.1     944    4   105          
2012-12-31 06   16.8   161.3     952    4    95          
2012-12-31 12   17.3   161.4     956    4    90          
2012-12-31 18   17.9   161.5     963    3    80          
2013-01-01 00   18.6   161.5     970    3    70          
2013-01-01 06   19.0   161.6     974    3    65          
2013-01-01 12   19.3   162.0     989    1    45          
2013-01-01 18   19.7   162.4     993    1    40          
2013-01-02 00   20.1   163.1     993    1    40          
2013-01-02 06   20.2   163.9     993    1    40          
2013-01-02 12   20.8   165.4     993    1    40          
2013-01-02 18   21.4   167.2     989    1    45          
2013-01-03 00   21.1   168.2     989    1    45          
2013-01-03 06   21.8   170.1     989    1    45          
2013-01-03 12   22.1   171.6     993    1    40          
2013-01-03 18   22.2   172.9     993    1    40          
2013-01-04 00   22.9   174.7     993    1    40          
2013-01-04 06   23.5   176.2     996    1    35          
2013-01-04 12   25.1   177.9     997                     
2013-01-04 18   27.1   179.8W    996                     
2013-01-05 00   29.4   177.5W    995                     
2013-01-05 06   31.4   177.4W    996                     
2013-01-05 12   32.5   179.4W    991                     
2013-01-05 18   32.7   179.9W    987                     
2013-01-06 00   33.0   179.9     990                     
2013-01-06 06   33.8   179.1W    991                     
2013-01-06 12   35.0   179.8W    992                     
2013-01-06 18   35.8   179.0W    992                     
2013-01-07 00   37.8   178.1W    993                     
2013-01-07 06   40.9   178.1W    990                     
Winds are 10-min average.

Tropical cyclone tracks developed by Michael Bath using operational warnings and advisories and Google Maps.


[Australian Severe Weather index] [Copyright Notice] [Email Contacts] [Search This Site] [Privacy Policy]
Document: tropical_cyclone_freda.htm Updated: 2 May 2017